Time;durP1;ratioP1;P1;durP2;ratioP2;P2;SDS_P1;SDS_P2;PMS_P1;PMS_P2;Temp;Humidity;BMP_temperature;BMP_pressure;BME280_temperature;BME280_humidity;BME280_pressure;Samples;Min_cycle;Max_cycle;Signal;HPM_P1;HPM_P2
2023/11/07 00:01:01;;;;;;;1.53;0.73;;;11.90;86.80;;;;;;5021997;28;20973;-45
2023/11/07 00:03:29;;;;;;;1.50;0.77;;;11.90;86.80;;;;;;5019818;28;20448;-47
2023/11/07 00:05:57;;;;;;;1.10;0.50;;;11.90;86.80;;;;;;5023671;28;20456;-47
2023/11/07 00:08:26;;;;;;;1.70;0.60;;;11.90;86.80;;;;;;5020993;28;20461;-47
2023/11/07 00:10:54;;;;;;;1.57;0.80;;;11.90;86.90;;;;;;5022974;28;20468;-45
2023/11/07 00:13:22;;;;;;;1.43;0.60;;;11.90;86.80;;;;;;5024799;28;20443;-46
2023/11/07 00:15:51;;;;;;;1.30;0.53;;;11.90;86.90;;;;;;5021276;28;20457;-46
2023/11/07 00:18:20;;;;;;;1.53;0.50;;;11.90;88.20;;;;;;5024323;28;20448;-47
2023/11/07 00:20:48;;;;;;;1.47;0.80;;;11.90;88.10;;;;;;5026670;28;20491;-46
2023/11/07 00:23:16;;;;;;;1.43;0.63;;;11.90;86.80;;;;;;5023457;28;20971;-49
2023/11/07 00:25:44;;;;;;;1.20;0.60;;;11.90;86.80;;;;;;5023512;28;21003;-47
2023/11/07 00:28:12;;;;;;;1.20;0.53;;;11.90;86.90;;;;;;5025516;28;20424;-47
2023/11/07 00:30:41;;;;;;;2.03;0.77;;;11.90;86.90;;;;;;5025067;28;20443;-45
2023/11/07 00:33:11;;;;;;;1.87;0.67;;;11.90;86.80;;;;;;5018061;28;20462;-46
2023/11/07 00:35:41;;;;;;;2.90;0.60;;;11.90;86.90;;;;;;5026292;28;20452;-47
2023/11/07 00:38:09;;;;;;;1.07;0.60;;;11.90;86.90;;;;;;5002215;28;20456;-47
2023/11/07 00:40:37;;;;;;;1.20;0.50;;;11.90;87.00;;;;;;5021607;28;20452;-47
2023/11/07 00:43:06;;;;;;;2.03;0.83;;;11.90;86.90;;;;;;5001997;28;20444;-48
2023/11/07 00:45:34;;;;;;;1.70;0.90;;;11.90;86.80;;;;;;5026678;28;20897;-46
2023/11/07 00:48:02;;;;;;;1.70;0.67;;;11.90;86.80;;;;;;5013877;28;20491;-47
2023/11/07 00:50:32;;;;;;;1.63;0.50;;;11.90;86.80;;;;;;5028626;28;20501;-47
2023/11/07 00:53:00;;;;;;;1.00;0.50;;;11.90;86.90;;;;;;5026676;28;20446;-45
2023/11/07 00:55:29;;;;;;;0.90;0.50;;;11.90;86.80;;;;;;5023713;28;20468;-47
2023/11/07 00:57:57;;;;;;;1.93;0.60;;;11.90;86.90;;;;;;5024987;28;20792;-46
2023/11/07 01:00:25;;;;;;;1.30;0.60;;;11.90;86.60;;;;;;5003797;28;20432;-46
2023/11/07 01:02:53;;;;;;;1.10;0.80;;;11.90;86.70;;;;;;5026410;28;20471;-47
2023/11/07 01:05:22;;;;;;;2.20;0.57;;;11.90;86.60;;;;;;5026852;28;20482;-47
2023/11/07 01:07:51;;;;;;;2.97;0.80;;;11.90;86.40;;;;;;5025618;28;20511;-46
2023/11/07 01:10:21;;;;;;;1.80;0.60;;;11.90;86.40;;;;;;4996127;28;20449;-47
2023/11/07 01:12:52;;;;;;;1.50;0.97;;;11.90;86.60;;;;;;5026328;28;20464;-45
2023/11/07 01:15:21;;;;;;;1.10;0.40;;;11.90;86.60;;;;;;5003371;28;20458;-45
2023/11/07 01:17:49;;;;;;;1.20;0.63;;;11.90;86.40;;;;;;5024942;28;20486;-46
2023/11/07 01:20:17;;;;;;;1.67;0.80;;;11.80;86.40;;;;;;5003355;28;20451;-46
2023/11/07 01:22:46;;;;;;;1.07;0.40;;;11.80;86.60;;;;;;4999747;28;20463;-47
2023/11/07 01:25:15;;;;;;;1.47;0.60;;;11.90;86.60;;;;;;5020499;28;20468;-46
2023/11/07 01:27:44;;;;;;;2.03;1.00;;;11.80;86.30;;;;;;5021040;28;20536;-48
2023/11/07 01:30:13;;;;;;;2.23;0.63;;;11.80;86.10;;;;;;5024092;28;20433;-49
2023/11/07 01:32:42;;;;;;;2.70;0.60;;;11.80;85.70;;;;;;5018579;28;20896;-47
2023/11/07 01:35:10;;;;;;;1.73;0.63;;;11.80;85.90;;;;;;5027651;28;20532;-47
2023/11/07 01:37:39;;;;;;;1.00;0.50;;;11.80;85.80;;;;;;5021722;28;20468;-46
2023/11/07 01:40:09;;;;;;;1.57;0.60;;;11.80;86.10;;;;;;4991671;28;20503;-48
2023/11/07 01:42:43;;;;;;;1.10;0.57;;;11.80;86.20;;;;;;5021512;28;20481;-45
2023/11/07 01:45:12;;;;;;;3.00;0.73;;;11.80;85.90;;;;;;5022843;28;20518;-47
2023/11/07 01:47:41;;;;;;;1.30;0.60;;;11.80;86.00;;;;;;5020639;28;20848;-47
2023/11/07 01:50:11;;;;;;;1.40;0.50;;;11.80;86.10;;;;;;5023299;28;20471;-46
2023/11/07 01:52:40;;;;;;;1.30;0.70;;;11.80;86.10;;;;;;5031761;28;20809;-45
2023/11/07 01:55:12;;;;;;;1.90;0.60;;;11.80;86.00;;;;;;5025902;28;20451;-46
2023/11/07 01:57:45;;;;;;;4.30;0.93;;;11.80;85.80;;;;;;5025495;28;20453;-48
2023/11/07 02:00:14;;;;;;;1.60;0.70;;;11.80;85.90;;;;;;5013126;28;20512;-49
2023/11/07 02:02:43;;;;;;;1.07;0.57;;;11.80;85.70;;;;;;5027321;28;20463;-47
2023/11/07 02:05:11;;;;;;;1.20;0.67;;;11.80;85.70;;;;;;5026486;28;20456;-47
2023/11/07 02:07:40;;;;;;;1.13;0.60;;;11.80;85.20;;;;;;5028411;28;20833;-46
2023/11/07 02:10:09;;;;;;;2.03;1.10;;;11.80;85.10;;;;;;5024727;28;21027;-47
2023/11/07 02:12:38;;;;;;;0.93;0.30;;;11.80;85.60;;;;;;5010876;28;20488;-46
2023/11/07 02:15:22;;;;;;;1.20;0.40;;;11.80;85.60;;;;;;5027932;28;20843;-47
2023/11/07 02:17:50;;;;;;;3.40;0.60;;;11.80;85.90;;;;;;5023209;28;20472;-46
2023/11/07 02:20:19;;;;;;;1.57;0.40;;;11.80;85.80;;;;;;5027527;28;20440;-46
2023/11/07 02:22:49;;;;;;;1.20;0.60;;;11.80;85.80;;;;;;5027479;28;20493;-47
2023/11/07 02:25:19;;;;;;;1.20;0.63;;;11.80;85.70;;;;;;5024175;28;20473;-48
2023/11/07 02:27:47;;;;;;;1.13;0.50;;;11.80;85.70;;;;;;5028056;28;20456;-48
2023/11/07 02:30:16;;;;;;;1.20;0.67;;;11.80;85.20;;;;;;5026414;28;20488;-48
2023/11/07 02:32:45;;;;;;;3.03;0.90;;;11.80;85.10;;;;;;5024374;28;20483;-46
2023/11/07 02:35:13;;;;;;;1.23;0.40;;;11.80;85.70;;;;;;5025481;28;20434;-48
2023/11/07 02:37:42;;;;;;;1.77;0.60;;;11.80;85.60;;;;;;5027920;28;20467;-45
2023/11/07 02:40:11;;;;;;;1.00;0.50;;;11.80;85.80;;;;;;5023202;28;20947;-46
2023/11/07 02:42:41;;;;;;;0.83;0.40;;;11.80;85.70;;;;;;5027676;28;20510;-47
2023/11/07 02:45:11;;;;;;;1.47;0.80;;;11.80;85.40;;;;;;5001930;28;20444;-47
2023/11/07 02:47:41;;;;;;;1.23;0.60;;;11.80;85.10;;;;;;5025611;28;20484;-47
2023/11/07 02:50:10;;;;;;;2.43;0.60;;;11.70;85.30;;;;;;5024734;28;20453;-47
2023/11/07 02:52:39;;;;;;;1.03;0.53;;;11.80;85.10;;;;;;5007409;28;20485;-46
2023/11/07 02:55:07;;;;;;;1.90;0.53;;;11.70;85.00;;;;;;5022975;28;20450;-46
2023/11/07 02:57:40;;;;;;;1.27;0.50;;;11.70;85.20;;;;;;5025899;28;20467;-47
2023/11/07 03:00:10;;;;;;;1.17;0.50;;;11.70;85.40;;;;;;5011835;28;21385;-49
2023/11/07 03:02:39;;;;;;;2.60;0.80;;;11.70;85.50;;;;;;5006393;28;20485;-47
2023/11/07 03:05:08;;;;;;;1.87;0.60;;;11.70;85.20;;;;;;5009826;28;20440;-46
2023/11/07 03:07:36;;;;;;;1.50;0.70;;;11.70;85.20;;;;;;5025093;28;21010;-45
2023/11/07 03:10:06;;;;;;;1.30;0.60;;;11.70;85.00;;;;;;5004387;28;20548;-46
2023/11/07 03:12:34;;;;;;;1.33;0.53;;;11.70;85.00;;;;;;5027248;28;20560;-46
2023/11/07 03:15:05;;;;;;;1.10;0.60;;;11.70;85.00;;;;;;5025555;28;20454;-46
2023/11/07 03:17:33;;;;;;;1.40;0.70;;;11.70;85.50;;;;;;5023432;28;20490;-47
2023/11/07 03:20:04;;;;;;;1.47;0.90;;;11.70;85.10;;;;;;5026916;28;20490;-47
2023/11/07 03:22:32;;;;;;;1.20;0.50;;;11.70;85.10;;;;;;5006810;28;20574;-47
2023/11/07 03:25:00;;;;;;;1.00;0.50;;;11.80;85.20;;;;;;5024163;28;20813;-47
2023/11/07 03:27:28;;;;;;;1.20;0.77;;;11.70;85.00;;;;;;5008449;28;20928;-45
2023/11/07 03:29:56;;;;;;;1.10;0.50;;;11.70;85.30;;;;;;5023734;28;20518;-45
2023/11/07 03:32:27;;;;;;;1.50;0.50;;;11.70;85.40;;;;;;5026371;28;20980;-47
2023/11/07 03:34:55;;;;;;;1.57;0.60;;;11.70;85.30;;;;;;5026395;28;20442;-46
2023/11/07 03:37:24;;;;;;;1.03;0.40;;;11.70;85.00;;;;;;5003409;28;20905;-47
2023/11/07 03:39:52;;;;;;;0.80;0.40;;;11.70;85.00;;;;;;5025730;28;20904;-47
2023/11/07 03:42:21;;;;;;;0.80;0.40;;;11.70;85.00;;;;;;5016876;28;20836;-45
2023/11/07 03:44:49;;;;;;;1.60;0.70;;;11.70;85.00;;;;;;5026837;28;20428;-46
2023/11/07 03:47:18;;;;;;;1.00;0.57;;;11.70;85.10;;;;;;5023928;28;20483;-46
2023/11/07 03:49:48;;;;;;;0.90;0.50;;;11.70;85.00;;;;;;5026932;28;20475;-45
2023/11/07 03:52:16;;;;;;;1.13;0.60;;;11.70;85.00;;;;;;5025203;28;20483;-46
2023/11/07 03:54:44;;;;;;;1.10;0.50;;;11.70;85.10;;;;;;5025797;28;20448;-46
2023/11/07 03:57:12;;;;;;;1.00;0.60;;;11.70;85.00;;;;;;5008544;28;20483;-46
2023/11/07 03:59:45;;;;;;;1.20;0.83;;;11.70;85.10;;;;;;5025669;28;20433;-46
2023/11/07 04:02:13;;;;;;;2.33;0.90;;;11.70;85.10;;;;;;5024489;28;20974;-46
2023/11/07 04:04:41;;;;;;;2.10;0.50;;;11.70;85.00;;;;;;5025616;28;20426;-45
2023/11/07 04:07:11;;;;;;;1.20;0.60;;;11.70;85.20;;;;;;5005109;28;20882;-47
2023/11/07 04:09:39;;;;;;;1.50;0.63;;;11.70;85.00;;;;;;5020720;28;20450;-46
2023/11/07 04:12:07;;;;;;;0.90;0.50;;;11.70;85.10;;;;;;5026051;28;20472;-46
2023/11/07 04:14:37;;;;;;;1.30;0.60;;;11.70;85.20;;;;;;5027232;28;20435;-46
2023/11/07 04:17:05;;;;;;;1.00;0.47;;;11.70;85.10;;;;;;5025662;28;20464;-46
2023/11/07 04:19:33;;;;;;;1.13;0.40;;;11.70;85.20;;;;;;5023678;28;20790;-46
2023/11/07 04:22:04;;;;;;;1.40;0.60;;;11.70;85.10;;;;;;5025894;28;20475;-46
2023/11/07 04:24:37;;;;;;;1.40;0.53;;;11.70;85.30;;;;;;5026280;28;20446;-46
2023/11/07 04:27:07;;;;;;;1.30;0.57;;;11.70;85.00;;;;;;5030720;28;20480;-46
2023/11/07 04:29:36;;;;;;;0.80;0.40;;;11.70;85.00;;;;;;5029068;28;20605;-46
2023/11/07 04:32:04;;;;;;;2.20;0.60;;;11.70;85.00;;;;;;5028820;28;20477;-46
2023/11/07 04:34:34;;;;;;;0.80;0.43;;;11.70;85.00;;;;;;5030256;28;20439;-46
2023/11/07 04:37:02;;;;;;;1.30;0.40;;;11.70;85.00;;;;;;5026296;28;20476;-46
2023/11/07 04:39:30;;;;;;;1.03;0.50;;;11.60;84.90;;;;;;5028213;28;20463;-46
2023/11/07 04:42:01;;;;;;;1.70;0.87;;;11.60;84.90;;;;;;5030414;28;20975;-46
2023/11/07 04:44:31;;;;;;;3.23;0.57;;;11.70;85.00;;;;;;5030245;28;20765;-46
2023/11/07 04:47:01;;;;;;;1.07;0.60;;;11.60;84.90;;;;;;5026736;28;20464;-46
2023/11/07 04:49:33;;;;;;;0.87;0.43;;;11.60;84.90;;;;;;5024768;28;20485;-45
2023/11/07 04:52:02;;;;;;;1.60;0.60;;;11.60;84.90;;;;;;5026679;28;21050;-47
2023/11/07 04:54:30;;;;;;;1.90;0.50;;;11.60;84.90;;;;;;5027094;28;20908;-46
2023/11/07 04:57:00;;;;;;;1.27;0.50;;;11.60;84.90;;;;;;5028782;28;20564;-46
2023/11/07 04:59:28;;;;;;;1.20;0.60;;;11.60;84.90;;;;;;5029486;28;20454;-45
2023/11/07 05:01:56;;;;;;;1.70;0.70;;;11.60;84.90;;;;;;5015570;28;20508;-45
2023/11/07 05:04:24;;;;;;;1.30;0.67;;;11.60;85.10;;;;;;5029395;28;20487;-46
2023/11/07 05:06:53;;;;;;;1.20;0.60;;;11.60;84.90;;;;;;5010138;28;20485;-46
2023/11/07 05:09:22;;;;;;;1.30;0.60;;;11.60;84.90;;;;;;5022431;28;20450;-46
2023/11/07 05:11:50;;;;;;;1.00;0.40;;;11.60;84.90;;;;;;5028249;28;20474;-46
2023/11/07 05:14:20;;;;;;;1.47;0.50;;;11.60;84.90;;;;;;5029465;28;20434;-46
2023/11/07 05:16:48;;;;;;;1.00;0.50;;;11.60;86.20;;;;;;5028756;28;20515;-46
2023/11/07 05:19:18;;;;;;;1.77;0.70;;;11.60;84.90;;;;;;5025233;28;20445;-45
2023/11/07 05:21:46;;;;;;;2.00;0.67;;;11.60;84.90;;;;;;5027703;28;20496;-46
2023/11/07 05:24:15;;;;;;;1.07;0.50;;;11.60;84.90;;;;;;5027176;28;20797;-46
2023/11/07 05:26:45;;;;;;;1.97;0.90;;;11.60;84.90;;;;;;5028485;28;20467;-45
2023/11/07 05:29:15;;;;;;;1.20;0.80;;;11.60;84.90;;;;;;5027066;28;20445;-46
2023/11/07 05:31:46;;;;;;;1.10;0.40;;;11.60;84.90;;;;;;5010605;28;20483;-46
2023/11/07 05:34:15;;;;;;;1.27;0.63;;;11.60;84.90;;;;;;5023035;28;20871;-46
2023/11/07 05:36:44;;;;;;;1.30;0.73;;;11.60;85.10;;;;;;5027690;28;20546;-46
2023/11/07 05:39:12;;;;;;;2.13;0.53;;;11.60;85.00;;;;;;5024255;28;20474;-47
2023/11/07 05:41:40;;;;;;;1.10;0.40;;;11.60;85.10;;;;;;5028889;28;20456;-46
2023/11/07 05:44:08;;;;;;;2.53;0.80;;;11.50;84.80;;;;;;5026710;28;20525;-45
2023/11/07 05:46:36;;;;;;;1.47;0.70;;;11.60;84.90;;;;;;5027311;28;20460;-46
2023/11/07 05:49:07;;;;;;;1.00;0.50;;;11.50;84.80;;;;;;5027798;28;20472;-46
2023/11/07 05:51:38;;;;;;;1.67;0.73;;;11.50;84.80;;;;;;5028387;28;20468;-46
2023/11/07 05:54:07;;;;;;;1.40;0.63;;;11.50;85.00;;;;;;5025989;28;20860;-46
2023/11/07 05:56:35;;;;;;;1.00;0.40;;;11.50;85.00;;;;;;5032342;28;20459;-46
2023/11/07 05:59:04;;;;;;;2.07;0.70;;;11.50;84.90;;;;;;5011590;28;20440;-46
2023/11/07 06:01:32;;;;;;;1.30;0.63;;;11.50;84.90;;;;;;5025484;28;20855;-46
2023/11/07 06:04:00;;;;;;;2.00;0.87;;;11.50;85.20;;;;;;5028051;28;20455;-46
2023/11/07 06:06:30;;;;;;;1.10;0.40;;;11.50;85.30;;;;;;5029212;28;20459;-46
2023/11/07 06:08:58;;;;;;;1.63;0.70;;;11.50;85.20;;;;;;5024649;28;20530;-45
2023/11/07 06:11:26;;;;;;;1.47;0.60;;;11.50;85.20;;;;;;5027373;28;20464;-46
2023/11/07 06:13:55;;;;;;;1.10;0.60;;;11.50;85.20;;;;;;5028804;28;20441;-45
2023/11/07 06:16:26;;;;;;;1.07;0.50;;;11.50;85.20;;;;;;5027453;28;20886;-46
2023/11/07 06:18:54;;;;;;;1.00;0.50;;;11.50;85.30;;;;;;5026428;28;20475;-46
2023/11/07 06:21:22;;;;;;;1.67;0.70;;;11.50;84.90;;;;;;5027765;28;20450;-46
2023/11/07 06:23:53;;;;;;;1.97;0.57;;;11.50;84.80;;;;;;5026033;28;20432;-46
2023/11/07 06:26:21;;;;;;;3.00;0.83;;;11.50;84.80;;;;;;5024959;28;20471;-44
2023/11/07 06:28:50;;;;;;;0.97;0.50;;;11.50;84.80;;;;;;5027838;28;20551;-47
2023/11/07 06:31:24;;;;;;;1.17;0.50;;;11.50;84.80;;;;;;5026192;28;20480;-47
2023/11/07 06:33:52;;;;;;;1.60;0.83;;;11.50;84.90;;;;;;5025699;28;20453;-46
2023/11/07 06:36:20;;;;;;;1.20;0.60;;;11.50;85.10;;;;;;5027942;28;20472;-46
2023/11/07 06:38:48;;;;;;;1.10;0.83;;;11.50;84.90;;;;;;5006060;28;20500;-47
2023/11/07 06:41:19;;;;;;;1.47;0.60;;;11.50;84.80;;;;;;5028071;28;20591;-47
2023/11/07 06:43:48;;;;;;;1.20;0.50;;;11.50;84.80;;;;;;5025975;28;20962;-48
2023/11/07 06:46:17;;;;;;;3.20;0.70;;;11.50;85.10;;;;;;5024900;28;20456;-48
2023/11/07 06:48:48;;;;;;;1.40;0.60;;;11.50;86.10;;;;;;5008937;28;20514;-46
2023/11/07 06:51:18;;;;;;;1.20;0.50;;;11.50;85.20;;;;;;5022502;28;20582;-47
2023/11/07 06:53:48;;;;;;;1.47;0.50;;;11.50;85.00;;;;;;5024172;28;20484;-48
2023/11/07 06:56:17;;;;;;;0.90;0.50;;;11.50;84.80;;;;;;5023214;28;20470;-48
2023/11/07 06:58:47;;;;;;;2.07;0.63;;;11.50;85.00;;;;;;5028806;28;20429;-48
2023/11/07 07:01:15;;;;;;;1.23;0.80;;;11.50;84.80;;;;;;5027325;28;20990;-48
2023/11/07 07:03:43;;;;;;;1.00;0.60;;;11.50;84.80;;;;;;5026869;28;20525;-47
2023/11/07 07:06:12;;;;;;;1.00;0.43;;;11.40;84.70;;;;;;5026102;28;20511;-47
2023/11/07 07:08:41;;;;;;;1.10;0.60;;;11.40;84.70;;;;;;5012633;28;20465;-47
2023/11/07 07:11:09;;;;;;;1.20;0.50;;;11.40;85.00;;;;;;5025964;28;20449;-47
2023/11/07 07:13:39;;;;;;;1.77;0.60;;;11.40;86.10;;;;;;5026144;28;20471;-47
2023/11/07 07:16:08;;;;;;;1.33;0.63;;;11.40;84.80;;;;;;5026245;28;20543;-46
2023/11/07 07:18:39;;;;;;;1.53;0.83;;;11.40;84.70;;;;;;5024632;28;20436;-46
2023/11/07 07:21:09;;;;;;;0.93;0.50;;;11.40;84.80;;;;;;5026393;28;20452;-46
2023/11/07 07:23:37;;;;;;;0.97;0.40;;;11.40;84.90;;;;;;5007236;28;20484;-46
2023/11/07 07:26:08;;;;;;;1.00;0.50;;;11.40;84.80;;;;;;5007905;28;20543;-47
2023/11/07 07:28:38;;;;;;;1.00;0.50;;;11.40;84.80;;;;;;5009116;28;20889;-46
2023/11/07 07:31:08;;;;;;;1.10;0.50;;;11.40;84.80;;;;;;5024706;28;20480;-48
2023/11/07 07:33:37;;;;;;;1.20;0.43;;;11.40;84.90;;;;;;5025520;28;20855;-46
2023/11/07 07:36:11;;;;;;;1.03;0.57;;;11.40;84.90;;;;;;5026857;28;20460;-46
2023/11/07 07:38:39;;;;;;;1.60;0.70;;;11.40;85.10;;;;;;5022954;28;20441;-45
2023/11/07 07:41:10;;;;;;;1.10;0.50;;;11.40;85.10;;;;;;5015779;28;20462;-46
2023/11/07 07:43:39;;;;;;;2.30;0.50;;;11.40;85.10;;;;;;5026356;28;20429;-46
2023/11/07 07:46:10;;;;;;;1.00;0.57;;;11.40;85.10;;;;;;5026859;28;21007;-46
2023/11/07 07:48:39;;;;;;;0.90;0.43;;;11.40;85.10;;;;;;5022748;28;20835;-46
2023/11/07 07:51:07;;;;;;;1.13;0.50;;;11.40;85.10;;;;;;5007836;28;20480;-46
2023/11/07 07:53:35;;;;;;;1.20;0.43;;;11.40;85.00;;;;;;5025021;28;20434;-46
2023/11/07 07:56:12;;;;;;;1.00;0.50;;;11.40;84.90;;;;;;5025330;28;20461;-46
2023/11/07 07:58:42;;;;;;;1.40;0.50;;;11.40;85.00;;;;;;5026150;28;20421;-47
2023/11/07 08:01:18;;;;;;;1.30;0.47;;;11.40;85.20;;;;;;5030198;28;20507;-47
2023/11/07 08:03:48;;;;;;;1.27;0.63;;;11.40;85.00;;;;;;5012124;28;20482;-48
2023/11/07 08:06:17;;;;;;;1.20;0.43;;;11.40;85.10;;;;;;5029532;28;20848;-46
2023/11/07 08:08:45;;;;;;;1.20;0.60;;;11.40;84.90;;;;;;5029251;28;20993;-48
2023/11/07 08:11:15;;;;;;;0.83;0.40;;;11.40;84.90;;;;;;5031302;28;20459;-47
2023/11/07 08:13:43;;;;;;;1.47;0.47;;;11.40;85.10;;;;;;5030235;28;20444;-47
2023/11/07 08:16:13;;;;;;;1.10;0.57;;;11.40;84.80;;;;;;5011711;28;20487;-46
2023/11/07 08:18:43;;;;;;;4.50;0.90;;;11.40;84.90;;;;;;5026456;28;20440;-46
2023/11/07 08:21:13;;;;;;;1.23;0.50;;;11.40;84.90;;;;;;5010803;28;20458;-46
2023/11/07 08:23:41;;;;;;;1.80;0.60;;;11.40;85.20;;;;;;5014449;28;20451;-47
2023/11/07 08:26:11;;;;;;;0.80;0.50;;;11.40;85.30;;;;;;5027371;28;20462;-47
2023/11/07 08:28:43;;;;;;;1.10;0.50;;;11.40;85.20;;;;;;5028230;28;20506;-47
2023/11/07 08:31:13;;;;;;;2.00;0.60;;;11.40;85.30;;;;;;5029872;28;20462;-46
2023/11/07 08:33:43;;;;;;;1.20;0.50;;;11.40;85.10;;;;;;5028099;28;20813;-47
2023/11/07 08:36:13;;;;;;;1.83;0.50;;;11.40;84.90;;;;;;5030208;28;20467;-46
2023/11/07 08:38:42;;;;;;;1.57;0.40;;;11.40;85.00;;;;;;5027365;28;20442;-48
2023/11/07 08:41:11;;;;;;;1.20;0.60;;;11.40;84.90;;;;;;5009791;28;21079;-46
2023/11/07 08:43:39;;;;;;;1.43;0.60;;;11.50;85.10;;;;;;5010989;28;20528;-47
2023/11/07 08:46:08;;;;;;;2.90;0.90;;;11.50;85.00;;;;;;5027819;28;20459;-46
2023/11/07 08:48:44;;;;;;;2.50;0.77;;;11.60;84.90;;;;;;5029742;28;20447;-47
2023/11/07 08:51:14;;;;;;;3.90;1.20;;;11.70;85.10;;;;;;5029797;28;20443;-48
2023/11/07 08:53:43;;;;;;;5.60;1.30;;;11.80;85.10;;;;;;5016637;28;20529;-46
2023/11/07 08:56:13;;;;;;;5.73;1.17;;;11.90;85.10;;;;;;5029687;28;20807;-47
2023/11/07 08:58:41;;;;;;;8.93;1.20;;;11.90;84.40;;;;;;5025139;28;20426;-47
2023/11/07 09:01:11;;;;;;;5.90;1.60;;;11.90;84.40;;;;;;5028017;28;20489;-47
2023/11/07 09:16:16;;;;;;;19.00;5.38;;;11.90;85.40;;;;;;5076465;27;20986;-46
2023/11/07 09:18:44;;;;;;;17.93;5.10;;;11.90;85.20;;;;;;5063488;28;20184;-46
2023/11/07 09:21:14;;;;;;;18.47;5.03;;;11.90;85.20;;;;;;5064348;28;20465;-49
2023/11/07 09:23:49;;;;;;;13.27;4.90;;;11.80;85.10;;;;;;5060136;28;20564;-47
2023/11/07 09:26:18;;;;;;;17.43;4.70;;;11.80;85.10;;;;;;5064680;28;20840;-47
2023/11/07 09:28:48;;;;;;;11.30;4.60;;;11.70;85.00;;;;;;5063767;28;20438;-47
2023/11/07 09:31:18;;;;;;;11.43;5.07;;;11.70;85.00;;;;;;5063830;28;20492;-48
2023/11/07 09:33:47;;;;;;;15.00;5.40;;;11.70;85.00;;;;;;5063270;28;20518;-48
2023/11/07 09:36:16;;;;;;;11.53;3.93;;;11.70;85.20;;;;;;5064303;28;20470;-48
2023/11/07 09:38:46;;;;;;;15.73;4.00;;;11.70;85.10;;;;;;5061670;28;20455;-46
2023/11/07 09:41:22;;;;;;;8.23;3.07;;;11.70;85.10;;;;;;5063930;28;20462;-48
2023/11/07 09:43:51;;;;;;;11.63;3.13;;;11.70;85.00;;;;;;5062710;28;20424;-47
2023/11/07 09:46:22;;;;;;;9.73;3.77;;;11.60;84.90;;;;;;5063967;28;20989;-47
2023/11/07 09:48:53;;;;;;;14.03;3.80;;;11.60;84.90;;;;;;5062753;28;20536;-47
2023/11/07 09:51:25;;;;;;;11.83;3.97;;;11.60;85.00;;;;;;5063580;28;20472;-46
2023/11/07 09:53:58;;;;;;;9.13;3.83;;;11.60;84.90;;;;;;5061217;28;20453;-48
2023/11/07 09:56:31;;;;;;;9.23;3.70;;;11.60;85.00;;;;;;5060933;28;20467;-48
2023/11/07 09:59:10;;;;;;;5.33;2.77;;;11.60;85.10;;;;;;5064554;28;20417;-47
2023/11/07 10:01:40;;;;;;;8.17;3.60;;;11.60;85.10;;;;;;5061161;28;20843;-48
2023/11/07 10:04:08;;;;;;;5.20;2.93;;;11.60;85.20;;;;;;5064922;28;20456;-48
2023/11/07 10:06:38;;;;;;;9.57;3.20;;;11.60;85.40;;;;;;5063011;28;21056;-46
2023/11/07 10:09:06;;;;;;;9.00;2.50;;;11.50;85.20;;;;;;5061074;28;20954;-45
2023/11/07 10:11:45;;;;;;;8.50;3.00;;;11.60;85.10;;;;;;5062857;28;21083;-46
2023/11/07 10:14:18;;;;;;;12.30;3.80;;;11.60;84.90;;;;;;5061854;28;20442;-46
2023/11/07 10:16:51;;;;;;;13.77;2.97;;;11.70;85.00;;;;;;5062504;28;20467;-46
2023/11/07 10:19:27;;;;;;;7.87;2.30;;;11.60;84.90;;;;;;5061357;28;20968;-46
2023/11/07 10:21:58;;;;;;;8.60;2.63;;;11.60;85.40;;;;;;5062345;28;20549;-46
2023/11/07 10:24:44;;;;;;;13.13;3.03;;;11.60;84.90;;;;;;5059472;28;20448;-46
2023/11/07 10:27:17;;;;;;;8.57;3.03;;;11.60;85.10;;;;;;5051688;28;20490;-46
2023/11/07 10:29:51;;;;;;;5.03;2.77;;;11.60;85.20;;;;;;5032206;28;20437;-46
2023/11/07 10:32:45;;;;;;;5.30;2.03;;;11.60;85.10;;;;;;5048511;28;20459;-46
2023/11/07 10:35:14;;;;;;;5.10;2.63;;;11.60;85.00;;;;;;5047247;28;20515;-46
2023/11/07 10:37:45;;;;;;;6.23;2.40;;;11.60;84.90;;;;;;5047262;28;20470;-48
2023/11/07 10:40:15;;;;;;;3.87;2.30;;;11.60;84.90;;;;;;5047740;28;20534;-47
2023/11/07 10:42:47;;;;;;;4.00;1.80;;;11.60;84.90;;;;;;5049197;28;20459;-47
2023/11/07 10:45:17;;;;;;;9.63;2.70;;;11.50;85.00;;;;;;5050324;28;20437;-48
2023/11/07 10:47:48;;;;;;;12.53;3.73;;;11.50;85.00;;;;;;5047366;28;21028;-47
2023/11/07 10:50:18;;;;;;;7.43;2.40;;;11.60;85.20;;;;;;5047424;28;20434;-49
2023/11/07 10:52:50;;;;;;;4.53;3.00;;;11.60;85.10;;;;;;5046765;28;20458;-48
2023/11/07 10:55:19;;;;;;;9.27;2.87;;;11.50;84.80;;;;;;5044274;28;20469;-47
2023/11/07 10:57:56;;;;;;;9.40;2.23;;;11.50;85.10;;;;;;5050051;28;20467;-48
2023/11/07 11:00:30;;;;;;;2.80;1.80;;;11.60;85.40;;;;;;5049513;28;20438;-49
2023/11/07 11:03:05;;;;;;;7.67;2.40;;;11.50;85.20;;;;;;5049472;28;20838;-46
2023/11/07 11:05:35;;;;;;;4.50;2.07;;;11.50;85.20;;;;;;5048739;28;20462;-47
2023/11/07 11:08:06;;;;;;;8.27;2.10;;;11.50;85.40;;;;;;5049553;28;20471;-48
2023/11/07 11:10:37;;;;;;;3.90;1.93;;;11.50;85.40;;;;;;5046843;28;20953;-46
2023/11/07 11:13:14;;;;;;;6.97;1.90;;;11.50;85.40;;;;;;5048556;28;21031;-47
2023/11/07 11:15:46;;;;;;;4.23;2.10;;;11.60;85.50;;;;;;5048669;28;20964;-46
2023/11/07 11:18:28;;;;;;;6.57;2.00;;;11.50;84.80;;;;;;5046623;28;20459;-47
2023/11/07 11:21:05;;;;;;;3.20;1.70;;;11.50;84.90;;;;;;5044923;28;20944;-46
2023/11/07 11:23:40;;;;;;;5.70;1.87;;;11.50;84.80;;;;;;5046022;28;20440;-47
2023/11/07 11:26:23;;;;;;;3.30;2.27;;;11.50;84.80;;;;;;5045254;28;20490;-46
2023/11/07 11:28:52;;;;;;;6.47;2.67;;;11.50;84.80;;;;;;5045950;28;20435;-46
2023/11/07 11:31:22;;;;;;;4.37;1.73;;;11.50;84.90;;;;;;5043035;28;20480;-47
2023/11/07 11:34:25;;;;;;;6.10;2.30;;;11.50;84.80;;;;;;5043400;28;21011;-48
2023/11/07 11:36:56;;;;;;;4.40;1.90;;;11.50;84.80;;;;;;5046025;28;20539;-47
2023/11/07 11:39:43;;;;;;;2.47;2.23;;;11.50;84.80;;;;;;5043017;28;20437;-47
2023/11/07 11:42:12;;;;;;;2.63;1.70;;;11.50;84.80;;;;;;5048983;28;20988;-47
2023/11/07 11:44:41;;;;;;;2.90;2.00;;;11.50;84.80;;;;;;5047633;28;20436;-46
2023/11/07 11:47:29;;;;;;;3.73;2.10;;;11.50;84.80;;;;;;5044707;28;21228;-46
2023/11/07 11:50:19;;;;;;;3.40;1.80;;;11.50;84.80;;;;;;5043573;28;20661;-46
2023/11/07 11:52:49;;;;;;;2.60;1.70;;;11.50;84.80;;;;;;5047989;28;20463;-47
2023/11/07 11:55:17;;;;;;;3.30;1.50;;;11.50;85.00;;;;;;5040698;28;20440;-47
2023/11/07 11:58:15;;;;;;;1.90;1.30;;;11.50;84.80;;;;;;5047913;28;20479;-47
2023/11/07 12:00:46;;;;;;;8.10;2.80;;;11.50;84.90;;;;;;5046730;28;20441;-46
2023/11/07 12:03:18;;;;;;;7.13;1.93;;;11.50;85.00;;;;;;5041457;28;20484;-46
2023/11/07 12:06:07;;;;;;;4.70;1.77;;;11.50;85.00;;;;;;5046943;28;21007;-46
2023/11/07 12:08:41;;;;;;;2.50;1.50;;;11.50;85.00;;;;;;5046683;28;20459;-47
2023/11/07 12:11:10;;;;;;;2.80;1.63;;;11.50;84.90;;;;;;5044347;28;20503;-47
2023/11/07 12:13:37;;;;;;;4.70;1.60;;;11.50;84.90;;;;;;5043701;28;20432;-46
2023/11/07 12:16:19;;;;;;;5.77;1.50;;;11.50;84.90;;;;;;5045794;28;20460;-47
2023/11/07 12:18:50;;;;;;;2.63;1.30;;;11.50;84.80;;;;;;5044043;28;20437;-46
2023/11/07 12:21:25;;;;;;;3.27;1.57;;;11.50;84.80;;;;;;5046449;28;20489;-48
2023/11/07 12:23:55;;;;;;;5.63;1.20;;;11.50;84.80;;;;;;5044298;28;20454;-47
2023/11/07 12:26:40;;;;;;;5.23;1.47;;;11.50;84.80;;;;;;5040886;28;20534;-48
2023/11/07 12:29:09;;;;;;;3.43;1.60;;;11.50;84.80;;;;;;5045511;28;20799;-47
2023/11/07 12:31:38;;;;;;;3.23;1.33;;;11.50;84.90;;;;;;5045380;28;20466;-45
2023/11/07 12:34:08;;;;;;;1.70;1.30;;;11.50;84.90;;;;;;5044354;28;20443;-46
2023/11/07 12:36:40;;;;;;;2.43;1.30;;;11.50;84.90;;;;;;5044744;28;20465;-47
2023/11/07 12:39:09;;;;;;;3.67;1.53;;;11.50;84.80;;;;;;5046508;28;20444;-45
2023/11/07 12:41:38;;;;;;;2.10;1.00;;;11.50;84.80;;;;;;5042607;28;20469;-48
2023/11/07 12:44:13;;;;;;;1.67;1.20;;;11.50;84.80;;;;;;5035036;28;20446;-48
2023/11/07 12:46:42;;;;;;;3.20;1.43;;;11.50;84.80;;;;;;5036647;28;20475;-48
2023/11/07 12:49:18;;;;;;;2.70;1.70;;;11.50;84.90;;;;;;5043597;28;20846;-48
2023/11/07 12:51:48;;;;;;;2.07;1.20;;;11.50;85.00;;;;;;5042341;28;20485;-48
2023/11/07 12:54:24;;;;;;;1.70;1.20;;;11.50;85.30;;;;;;5045746;28;20526;-48
2023/11/07 12:56:55;;;;;;;2.50;1.33;;;11.50;85.20;;;;;;5043730;28;20635;-47
2023/11/07 12:59:24;;;;;;;2.43;1.37;;;11.50;85.10;;;;;;5043200;28;20442;-48
2023/11/07 13:01:54;;;;;;;4.50;1.20;;;11.50;85.30;;;;;;5037180;28;20529;-48
2023/11/07 13:04:22;;;;;;;2.37;0.97;;;11.50;85.10;;;;;;5045829;28;20471;-48
2023/11/07 13:06:55;;;;;;;2.73;0.80;;;11.50;85.30;;;;;;5047677;28;20838;-47
2023/11/07 13:09:28;;;;;;;1.93;1.23;;;11.50;85.20;;;;;;5046141;28;20532;-47
2023/11/07 13:12:14;;;;;;;1.93;1.03;;;11.50;85.30;;;;;;5044609;28;20849;-44
2023/11/07 13:14:43;;;;;;;3.53;1.53;;;11.50;85.20;;;;;;5037624;28;20903;-47